CSCL Fuzhou — ELYA7 — position and weather

sailwx.info

Track history (hours):
 
Tides and Currents Weather Stations Pressure Air Temp Water Temp Dewpoint Dewpoint Depression Visibility Wind Speed Wind Dir Waves Ship Positions

CSCL Fuzhou

Last reported at 2016-Jul-23 11:33 UTC. Time now 2016-Jul-24 22:28 UTC.
Position N 01°55' E 102°19'.

Length 207.4 m; beam 29.8 m; draft 11.4 m.

Type: Ship (hazmat cat A). MMSI: 636016483.

Date/timePositionNaut miles runAvg speedWind from/ knotsBaromVisibWave heightAir tempDewpointWater temp
2016-Jul-23 11:33N 01°55' E 102°19'1513.5
2016-Jul-23 10:28N 01°48' E 102°32'1813.9
2016-Jul-23 09:10N 01°40' E 102°48'5811.8
2016-Jul-23 04:15N 01°11' E 103°39'811.2
2016-Jul-23 03:33N 01°10' E 103°46'1414.6
2016-Jul-23 02:33N 01°15' E 103°60'  
2016-Jul-15 11:33N 01°14' E 104°00'1212.4
2016-Jul-15 10:33N 01°13' E 103°48'2 1.2
2016-Jul-15 09:07N 01°14' E 103°48'0 0.0
2016-Jul-15 08:04N 01°14' E 103°48'0 0.2
2016-Jul-15 07:28N 01°14' E 103°48'0 0.1
2016-Jul-15 06:31N 01°14' E 103°48'0 0.3
2016-Jul-15 05:32N 01°14' E 103°47'2 1.6
2016-Jul-15 04:33N 01°16' E 103°47'0 0.0
2016-Jul-15 03:33N 01°16' E 103°47'0 0.0
2016-Jul-15 02:34N 01°16' E 103°47'0 0.0
2016-Jul-15 00:16N 01°16' E 103°47'0 0.0
2016-Jul-14 23:28N 01°16' E 103°47'0 0.0
2016-Jul-14 22:31N 01°16' E 103°47'0 0.0
2016-Jul-14 21:16N 01°16' E 103°47'0 0.0
2016-Jul-14 20:16N 01°16' E 103°47'0 0.0
2016-Jul-14 19:28N 01°16' E 103°47'0 0.0
2016-Jul-14 18:16N 01°16' E 103°47'0 0.0
2016-Jul-14 17:22N 01°16' E 103°47'0 0.0
2016-Jul-14 16:33N 01°16' E 103°47'5 4.9
2016-Jul-14 15:33N 01°14' E 103°42'9 8.7
2016-Jul-14 14:31N 01°11' E 103°34'7713.0
2016-Jul-14 08:33N 01°47' E 102°25'  
Track history (hours):
 
Tides and Currents Weather Stations Pressure Air Temp Water Temp Dewpoint Dewpoint Depression Visibility Wind Speed Wind Dir Waves Ship Positions

CSCL Fuzhou

Last reported at 2016-Jul-23 11:33 UTC. Time now 2016-Jul-24 22:28 UTC.
Position N 01°55' E 102°19'.

Length 207.4 m; beam 29.8 m; draft 11.4 m.

Type: Ship (hazmat cat A). MMSI: 636016483.

Date/timePositionNaut miles runAvg speedWind from/ knotsBaromVisibWave heightAir tempDewpointWater temp
2016-Jul-23 11:33N 01°55' E 102°19'1513.5
2016-Jul-23 10:28N 01°48' E 102°32'1813.9
2016-Jul-23 09:10N 01°40' E 102°48'5811.8
2016-Jul-23 04:15N 01°11' E 103°39'811.2
2016-Jul-23 03:33N 01°10' E 103°46'1414.6
2016-Jul-23 02:33N 01°15' E 103°60'  
2016-Jul-15 11:33N 01°14' E 104°00'1212.4
2016-Jul-15 10:33N 01°13' E 103°48'2 1.2
2016-Jul-15 09:07N 01°14' E 103°48'0 0.0
2016-Jul-15 08:04N 01°14' E 103°48'0 0.2
2016-Jul-15 07:28N 01°14' E 103°48'0 0.1
2016-Jul-15 06:31N 01°14' E 103°48'0 0.3
2016-Jul-15 05:32N 01°14' E 103°47'2 1.6
2016-Jul-15 04:33N 01°16' E 103°47'0 0.0
2016-Jul-15 03:33N 01°16' E 103°47'0 0.0
2016-Jul-15 02:34N 01°16' E 103°47'0 0.0
2016-Jul-15 00:16N 01°16' E 103°47'0 0.0
2016-Jul-14 23:28N 01°16' E 103°47'0 0.0
2016-Jul-14 22:31N 01°16' E 103°47'0 0.0
2016-Jul-14 21:16N 01°16' E 103°47'0 0.0
2016-Jul-14 20:16N 01°16' E 103°47'0 0.0
2016-Jul-14 19:28N 01°16' E 103°47'0 0.0
2016-Jul-14 18:16N 01°16' E 103°47'0 0.0
2016-Jul-14 17:22N 01°16' E 103°47'0 0.0
2016-Jul-14 16:33N 01°16' E 103°47'5 4.9
2016-Jul-14 15:33N 01°14' E 103°42'9 8.7
2016-Jul-14 14:31N 01°11' E 103°34'7713.0
2016-Jul-14 08:33N 01°47' E 102°25'  

Dump ship's entire track history